createdAt,value
2018-12-16T00:00:29.575Z,101348.52
2018-12-16T00:03:00.514Z,101343.74
2018-12-16T00:05:31.180Z,101339.08
2018-12-16T00:08:01.411Z,101326.80
2018-12-16T00:10:31.497Z,101329.81
2018-12-16T00:13:01.622Z,101324.27
2018-12-16T00:15:31.894Z,101325.96
2018-12-16T00:18:02.778Z,101322.97
2018-12-16T00:20:34.156Z,101317.09
2018-12-16T00:23:04.766Z,101309.81
2018-12-16T00:25:35.512Z,101312.53
2018-12-16T00:28:06.506Z,101310.30
2018-12-16T00:30:36.812Z,101311.17
2018-12-16T00:33:08.012Z,101313.73
2018-12-16T00:35:37.987Z,101305.69
2018-12-16T00:38:08.466Z,101305.21
2018-12-16T00:40:38.543Z,101318.37
2018-12-16T00:43:08.835Z,101313.64
2018-12-16T00:45:38.857Z,101308.19
2018-12-16T00:48:10.373Z,101309.47
2018-12-16T00:50:40.440Z,101308.17
2018-12-16T00:53:11.500Z,101308.55
2018-12-16T00:55:41.590Z,101306.09
2018-12-16T00:58:12.298Z,101309.90
2018-12-16T01:00:42.481Z,101306.88
2018-12-16T01:03:13.070Z,101301.81
2018-12-16T01:05:44.134Z,101306.77
2018-12-16T01:08:15.143Z,101304.23
2018-12-16T01:10:45.191Z,101300.88
2018-12-16T01:13:15.492Z,101292.50
2018-12-16T01:15:45.606Z,101290.83
2018-12-16T01:18:15.802Z,101283.56
2018-12-16T01:20:45.892Z,101281.05
2018-12-16T01:23:16.325Z,101281.47
2018-12-16T01:25:46.409Z,101276.03
2018-12-16T01:28:16.611Z,101269.28
2018-12-16T01:30:47.456Z,101264.20
2018-12-16T01:33:17.652Z,101260.85
2018-12-16T01:35:48.711Z,101252.36
2018-12-16T01:38:19.405Z,101244.65
2018-12-16T01:40:51.020Z,101252.45
2018-12-16T01:43:21.114Z,101243.84
2018-12-16T01:45:51.326Z,101241.65
2018-12-16T01:48:21.319Z,101237.42
2018-12-16T01:50:51.907Z,101234.08
2018-12-16T01:53:22.190Z,101231.92
2018-12-16T01:55:52.268Z,101233.66
2018-12-16T01:58:23.456Z,101236.34
2018-12-16T02:00:54.469Z,101225.19
2018-12-16T02:03:24.627Z,101221.28
2018-12-16T02:05:54.738Z,101218.31
2018-12-16T02:08:26.217Z,101222.58
2018-12-16T02:10:56.453Z,101212.81
2018-12-16T02:13:26.554Z,101206.87
2018-12-16T02:15:56.645Z,101202.69
2018-12-16T02:18:27.347Z,101200.04
2018-12-16T02:20:57.810Z,101195.83
2018-12-16T02:23:28.028Z,101194.97
2018-12-16T02:25:58.169Z,101195.75
2018-12-16T02:28:29.278Z,101182.23
2018-12-16T02:30:59.304Z,101179.34
2018-12-16T02:33:30.771Z,101176.79
2018-12-16T02:36:00.910Z,101168.72
2018-12-16T02:38:32.147Z,101154.34
2018-12-16T02:41:02.279Z,101148.84
2018-12-16T02:43:32.434Z,101141.23
2018-12-16T02:46:02.928Z,101140.88
2018-12-16T02:48:33.757Z,101128.63
2018-12-16T02:51:03.703Z,101123.95
2018-12-16T02:53:33.709Z,101119.71
2018-12-16T02:56:04.604Z,101106.19
2018-12-16T02:58:34.749Z,101099.84
2018-12-16T03:01:05.002Z,101095.20
2018-12-16T03:03:35.091Z,101084.19
2018-12-16T03:06:05.250Z,101089.33
2018-12-16T03:08:35.432Z,101083.48
2018-12-16T03:11:05.567Z,101091.97
2018-12-16T03:13:35.541Z,101086.39
2018-12-16T03:16:05.763Z,101089.42
2018-12-16T03:18:35.999Z,101100.42
2018-12-16T03:21:07.169Z,101088.14
2018-12-16T03:23:37.301Z,101074.95
2018-12-16T03:26:07.451Z,101064.81
2018-12-16T03:28:38.654Z,101053.80
2018-12-16T03:31:08.716Z,101057.63
2018-12-16T03:33:38.913Z,101051.69
2018-12-16T03:36:08.995Z,101046.18
2018-12-16T03:38:39.163Z,101052.55
2018-12-16T03:41:10.147Z,101044.53
2018-12-16T03:43:40.718Z,101031.38
2018-12-16T03:46:11.418Z,101032.25
2018-12-16T03:48:41.647Z,101037.70
2018-12-16T03:51:11.636Z,101036.91
2018-12-16T03:53:42.607Z,101037.72
2018-12-16T03:56:14.172Z,101040.26
2018-12-16T03:59:01.155Z,101037.73
2018-12-16T04:01:31.894Z,101042.81
2018-12-16T04:04:03.057Z,101037.72
2018-12-16T04:06:33.142Z,101032.69
2018-12-16T04:09:03.666Z,101024.64
2018-12-16T04:11:33.723Z,101026.30
2018-12-16T04:14:04.047Z,101005.47
2018-12-16T04:16:34.263Z,101006.37
2018-12-16T04:19:04.516Z,100994.93
2018-12-16T04:21:35.355Z,100992.82
2018-12-16T04:24:06.507Z,100981.36
2018-12-16T04:26:36.625Z,100986.03
2018-12-16T04:29:07.243Z,100984.31
2018-12-16T04:31:37.386Z,100971.20
2018-12-16T04:34:07.494Z,100955.05
2018-12-16T04:36:38.446Z,100957.64
2018-12-16T04:39:09.161Z,100961.47
2018-12-16T04:41:39.601Z,100955.11
2018-12-16T04:44:09.731Z,100948.36
2018-12-16T04:46:39.954Z,100940.28
2018-12-16T04:49:10.791Z,100941.13
2018-12-16T04:51:40.912Z,100939.01
2018-12-16T04:54:11.015Z,100937.75
2018-12-16T04:56:41.073Z,100930.12
2018-12-16T04:59:12.335Z,100919.98
2018-12-16T05:01:42.533Z,100912.75
2018-12-16T05:04:12.798Z,100909.80
2018-12-16T05:06:42.995Z,100908.93
2018-12-16T05:09:12.987Z,100907.27
2018-12-16T05:11:43.883Z,100915.34
2018-12-16T05:14:14.185Z,100903.02
2018-12-16T05:16:45.062Z,100903.45
2018-12-16T05:19:15.387Z,100892.87
2018-12-16T05:21:45.560Z,100889.89
2018-12-16T05:24:15.917Z,100880.14
2018-12-16T05:26:46.106Z,100878.84
2018-12-16T05:29:16.317Z,100881.81
2018-12-16T05:31:46.511Z,100881.81
2018-12-16T05:34:16.581Z,100869.09
2018-12-16T05:36:47.485Z,100869.53
2018-12-16T05:39:17.536Z,100876.77
2018-12-16T05:41:47.728Z,100872.51
2018-12-16T05:44:18.342Z,100867.86
2018-12-16T05:46:48.363Z,100878.03
2018-12-16T05:49:18.524Z,100875.49
2018-12-16T05:51:48.710Z,100876.77
2018-12-16T05:54:18.815Z,100873.38
2018-12-16T05:56:48.956Z,100883.09
2018-12-16T05:59:19.608Z,100889.93
2018-12-16T06:01:50.174Z,100897.13
2018-12-16T06:04:20.279Z,100900.52
2018-12-16T06:06:50.809Z,100900.08
2018-12-16T06:09:21.154Z,100911.57
2018-12-16T06:11:51.497Z,100903.97
2018-12-16T06:14:21.616Z,100904.38
2018-12-16T06:16:52.367Z,100903.94
2018-12-16T06:19:22.537Z,100892.91
2018-12-16T06:21:52.719Z,100889.09
2018-12-16T06:24:23.300Z,100880.19
2018-12-16T06:26:54.640Z,100870.41
2018-12-16T06:29:24.705Z,100879.31
2018-12-16T06:31:55.384Z,100883.13
2018-12-16T06:34:26.231Z,100870.40
2018-12-16T06:36:57.039Z,100864.44
2018-12-16T06:39:27.278Z,100853.02
2018-12-16T06:41:58.039Z,100853.86
2018-12-16T06:44:28.737Z,100855.13
2018-12-16T06:46:58.899Z,100847.06
2018-12-16T06:49:28.973Z,100844.95
2018-12-16T06:51:59.161Z,100847.12
2018-12-16T06:54:30.901Z,100839.86
2018-12-16T06:57:01.135Z,100848.77
2018-12-16T06:59:31.266Z,100836.03
2018-12-16T07:02:02.136Z,100836.91
2018-12-16T07:04:32.099Z,100829.70
2018-12-16T07:07:02.744Z,100823.34
2018-12-16T07:09:33.674Z,100818.66
2018-12-16T07:12:04.037Z,100825.02
2018-12-16T07:14:34.866Z,100826.72
2018-12-16T07:17:05.317Z,100840.29
2018-12-16T07:19:35.607Z,100845.00
2018-12-16T07:22:05.849Z,100839.88
2018-12-16T07:24:36.738Z,100836.06
2018-12-16T07:27:06.988Z,100836.91
2018-12-16T07:29:37.227Z,100844.98
2018-12-16T07:32:07.265Z,100833.09
2018-12-16T07:34:37.902Z,100831.81
2018-12-16T07:37:08.129Z,100830.98
2018-12-16T07:39:38.252Z,100824.61
2018-12-16T07:42:09.154Z,100825.88
2018-12-16T07:44:39.524Z,100833.52
2018-12-16T07:47:09.635Z,100837.34
2018-12-16T07:49:40.175Z,100834.36
2018-12-16T07:52:10.909Z,100837.77
2018-12-16T07:54:42.556Z,100833.55
2018-12-16T07:57:12.601Z,100822.09
2018-12-16T07:59:42.696Z,100819.52
2018-12-16T08:02:12.933Z,100822.06
2018-12-16T08:04:43.240Z,100821.22
2018-12-16T08:07:13.875Z,100824.61
2018-12-16T08:09:44.662Z,100820.39
2018-12-16T08:12:14.580Z,100820.81
2018-12-16T08:14:44.958Z,100819.96
2018-12-16T08:17:15.168Z,100816.98
2018-12-16T08:19:45.397Z,100812.77
2018-12-16T08:22:15.481Z,100812.76
2018-12-16T08:24:46.190Z,100816.14
2018-12-16T08:27:16.228Z,100809.80
2018-12-16T08:29:46.436Z,100812.31
2018-12-16T08:32:16.580Z,100812.76
2018-12-16T08:34:46.712Z,100809.36
2018-12-16T08:37:17.524Z,100801.31
2018-12-16T08:39:48.798Z,100808.94
2018-12-16T08:42:18.739Z,100802.55
2018-12-16T08:44:50.169Z,100805.55
2018-12-16T08:47:20.716Z,100812.75
2018-12-16T08:49:50.925Z,100809.80
2018-12-16T08:52:22.584Z,100808.08
2018-12-16T08:54:53.233Z,100805.50
2018-12-16T08:57:24.062Z,100819.95
2018-12-16T08:59:54.797Z,100814.43
2018-12-16T09:02:34.747Z,100811.48
2018-12-16T09:05:05.174Z,100808.51
2018-12-16T09:07:37.519Z,100805.96
2018-12-16T09:10:09.022Z,100811.50
2018-12-16T09:12:39.208Z,100814.47
2018-12-16T09:15:10.058Z,100816.14
2018-12-16T09:17:40.173Z,100812.34
2018-12-16T09:20:10.501Z,100809.35
2018-12-16T09:22:40.509Z,100808.92
2018-12-16T09:25:10.763Z,100817.86
2018-12-16T09:27:42.413Z,100815.30
2018-12-16T09:30:14.042Z,100819.98
2018-12-16T09:32:44.107Z,100816.14
2018-12-16T09:35:14.270Z,100814.02
2018-12-16T09:37:44.472Z,100812.34
2018-12-16T09:40:14.669Z,100805.55
2018-12-16T09:42:45.417Z,100791.08
2018-12-16T09:45:15.600Z,100796.61
2018-12-16T09:47:45.978Z,100793.66
2018-12-16T09:50:15.999Z,100797.05
2018-12-16T09:52:46.055Z,100792.78
2018-12-16T09:55:16.221Z,100784.72
2018-12-16T09:57:46.488Z,100785.16
2018-12-16T10:00:16.547Z,100778.78
2018-12-16T10:02:46.702Z,100772.00
2018-12-16T10:05:16.810Z,100767.74
2018-12-16T10:07:47.676Z,100761.38
2018-12-16T10:10:17.687Z,100764.73
2018-12-16T10:12:49.105Z,100757.12
2018-12-16T10:15:19.793Z,100760.52
2018-12-16T10:17:50.510Z,100761.80
2018-12-16T10:20:21.678Z,100775.78
2018-12-16T10:22:52.584Z,100757.10
2018-12-16T10:25:22.981Z,100757.95
2018-12-16T10:27:54.680Z,100755.81
2018-12-16T10:30:25.338Z,100753.70
2018-12-16T10:32:59.080Z,100735.02
2018-12-16T10:35:30.604Z,100740.54
2018-12-16T10:38:00.716Z,100724.39
2018-12-16T10:40:31.449Z,100725.66
2018-12-16T10:43:01.337Z,100719.27
2018-12-16T10:45:31.275Z,100709.55
2018-12-16T10:48:01.194Z,100709.50
2018-12-16T10:50:31.094Z,100706.14
2018-12-16T10:53:01.319Z,100706.16
2018-12-16T10:55:31.488Z,100705.73
2018-12-16T10:58:01.589Z,100706.55
2018-12-16T11:00:36.839Z,100698.89
2018-12-16T11:03:07.030Z,100695.48
2018-12-16T11:05:38.219Z,100705.67
2018-12-16T11:08:08.499Z,100701.00
2018-12-16T11:10:38.623Z,100700.12
2018-12-16T11:13:08.909Z,100697.98
2018-12-16T11:15:39.003Z,100687.33
2018-12-16T11:18:09.123Z,100695.89
2018-12-16T11:20:40.017Z,100686.96
2018-12-16T11:23:15.855Z,100681.48
2018-12-16T11:25:51.041Z,100687.38
2018-12-16T11:28:21.297Z,100689.47
2018-12-16T11:30:51.418Z,100681.87
2018-12-16T11:33:21.668Z,100681.00
2018-12-16T11:35:51.606Z,100685.66
2018-12-16T11:38:21.552Z,100678.83
2018-12-16T11:40:51.455Z,100675.88
2018-12-16T11:43:21.387Z,100668.63
2018-12-16T11:45:51.447Z,100669.48
2018-12-16T11:48:21.490Z,100662.55
2018-12-16T11:50:52.747Z,100664.33
2018-12-16T11:53:23.066Z,100660.91
2018-12-16T11:55:53.395Z,100656.20
2018-12-16T11:58:24.533Z,100663.80
2018-12-16T12:00:54.588Z,100655.74
2018-12-16T12:03:24.710Z,100653.16
2018-12-16T12:05:54.735Z,100652.31
2018-12-16T12:08:25.091Z,100645.92
2018-12-16T12:10:55.176Z,100642.84
2018-12-16T12:13:25.834Z,100646.66
2018-12-16T12:15:55.906Z,100637.67
2018-12-16T12:18:26.652Z,100637.77
2018-12-16T12:20:56.782Z,100637.23
2018-12-16T12:23:27.752Z,100627.13
2018-12-16T12:25:58.478Z,100626.58
2018-12-16T12:28:29.587Z,100632.05
2018-12-16T12:31:00.136Z,100633.30
2018-12-16T12:33:30.921Z,100635.12
2018-12-16T12:36:02.133Z,100628.30
2018-12-16T12:38:32.712Z,100631.99
2018-12-16T12:41:02.883Z,100636.72
2018-12-16T12:43:33.703Z,100631.17
2018-12-16T12:46:04.679Z,100628.20
2018-12-16T12:48:34.874Z,100627.73
2018-12-16T12:51:05.002Z,100624.38
2018-12-16T12:53:36.371Z,100620.95
2018-12-16T12:56:06.558Z,100618.71
2018-12-16T12:58:38.836Z,100619.55
2018-12-16T13:01:09.485Z,100615.82
2018-12-16T13:03:39.594Z,100619.06
2018-12-16T13:06:10.574Z,100620.75
2018-12-16T13:08:40.876Z,100616.14
2018-12-16T13:11:11.045Z,100615.64
2018-12-16T13:13:41.818Z,100619.02
2018-12-16T13:16:12.004Z,100617.79
2018-12-16T13:18:43.532Z,100617.80
2018-12-16T13:21:13.699Z,100613.97
2018-12-16T13:23:43.857Z,100615.83
2018-12-16T13:26:13.934Z,100619.16
2018-12-16T13:28:44.815Z,100615.25
2018-12-16T13:31:14.988Z,100618.66
2018-12-16T13:33:45.115Z,100610.64
2018-12-16T13:36:15.128Z,100611.34
2018-12-16T13:38:45.503Z,100618.64
2018-12-16T13:41:15.644Z,100616.28
2018-12-16T13:43:46.460Z,100614.06
2018-12-16T13:46:17.957Z,100615.47
2018-12-16T13:48:48.697Z,100610.33
2018-12-16T13:51:20.562Z,100616.31
2018-12-16T13:53:51.314Z,100618.88
2018-12-16T13:56:22.345Z,100618.84
2018-12-16T13:58:52.532Z,100614.32
2018-12-16T14:01:22.460Z,100619.87
2018-12-16T14:03:52.587Z,100622.01
2018-12-16T14:06:22.758Z,100623.81
2018-12-16T14:08:53.775Z,100626.76
2018-12-16T14:11:24.011Z,100626.75
2018-12-16T14:13:54.042Z,100630.95
2018-12-16T14:16:24.146Z,100626.80
2018-12-16T14:18:54.168Z,100629.44
2018-12-16T14:21:24.211Z,100624.70
2018-12-16T14:23:54.289Z,100624.72
2018-12-16T14:26:25.683Z,100627.67
2018-12-16T14:28:55.708Z,100621.78
2018-12-16T14:31:27.627Z,100620.52
2018-12-16T14:33:58.391Z,100624.30
2018-12-16T14:36:28.625Z,100629.03
2018-12-16T14:38:58.793Z,100632.78
2018-12-16T14:41:28.800Z,100635.36
2018-12-16T14:43:59.108Z,100645.20
2018-12-16T14:46:30.261Z,100642.16
2018-12-16T14:49:00.360Z,100644.28
2018-12-16T14:51:31.222Z,100634.02
2018-12-16T14:54:01.330Z,100642.19
2018-12-16T14:56:32.143Z,100641.78
2018-12-16T14:59:03.359Z,100641.24
2018-12-16T15:01:33.875Z,100642.16
2018-12-16T15:04:04.007Z,100642.19
2018-12-16T15:06:34.168Z,100637.45
2018-12-16T15:09:08.224Z,100640.45
2018-12-16T15:11:38.332Z,100645.95
2018-12-16T15:14:08.796Z,100647.70
2018-12-16T15:16:38.975Z,100653.98
2018-12-16T15:19:09.903Z,100648.48
2018-12-16T15:21:40.703Z,100649.34
2018-12-16T15:24:10.761Z,100650.16
2018-12-16T15:26:40.855Z,100646.84
2018-12-16T15:29:10.891Z,100646.81
2018-12-16T15:31:40.902Z,100659.09
2018-12-16T15:34:11.762Z,100665.92
2018-12-16T15:36:42.533Z,100666.73
2018-12-16T15:39:12.735Z,100665.06
2018-12-16T15:41:42.925Z,100662.47
2018-12-16T15:44:13.352Z,100661.22
2018-12-16T15:46:43.543Z,100667.59
2018-12-16T15:49:14.258Z,100662.47
2018-12-16T15:51:44.313Z,100662.12
2018-12-16T15:54:14.953Z,100660.77
2018-12-16T15:56:45.795Z,100666.74
2018-12-16T15:59:15.859Z,100671.46
2018-12-16T16:01:45.840Z,100672.24
2018-12-16T16:04:16.677Z,100674.37
2018-12-16T16:06:47.876Z,100676.08
2018-12-16T16:09:18.256Z,100679.90
2018-12-16T16:11:48.802Z,100679.98
2018-12-16T16:14:19.115Z,100685.95
2018-12-16T16:16:49.142Z,100689.34
2018-12-16T16:19:19.240Z,100692.75
2018-12-16T16:21:49.333Z,100704.69
2018-12-16T16:24:19.649Z,100703.39
2018-12-16T16:26:49.732Z,100703.39
2018-12-16T16:29:19.965Z,100698.34
2018-12-16T16:31:50.020Z,100694.53
2018-12-16T16:34:20.232Z,100701.31
2018-12-16T16:36:50.421Z,100697.91
2018-12-16T16:39:21.131Z,100700.08
2018-12-16T16:41:51.948Z,100699.27
2018-12-16T16:44:22.036Z,100700.53
2018-12-16T16:46:52.083Z,100703.51
2018-12-16T16:49:22.179Z,100703.92
2018-12-16T16:51:52.391Z,100704.36
2018-12-16T16:54:23.142Z,100715.84
2018-12-16T16:56:53.229Z,100709.92
2018-12-16T16:59:24.105Z,100711.65
2018-12-16T17:01:54.231Z,100703.59
2018-12-16T17:04:24.358Z,100714.21
2018-12-16T17:06:54.515Z,100718.45
2018-12-16T17:09:25.301Z,100714.22
2018-12-16T17:11:55.424Z,100723.12
2018-12-16T17:14:25.607Z,100722.27
2018-12-16T17:16:55.730Z,100720.58
2018-12-16T17:19:26.619Z,100721.81
2018-12-16T17:21:58.377Z,100723.98
2018-12-16T17:24:29.129Z,100723.53
2018-12-16T17:26:59.173Z,100724.81
2018-12-16T17:29:29.345Z,100723.98
2018-12-16T17:32:00.303Z,100725.24
2018-12-16T17:34:30.496Z,100720.55
2018-12-16T17:37:01.353Z,100721.45
2018-12-16T17:39:32.207Z,100719.27
2018-12-16T17:42:02.355Z,100721.39
2018-12-16T17:44:32.616Z,100720.97
2018-12-16T17:47:02.641Z,100719.73
2018-12-16T17:49:33.514Z,100712.55
2018-12-16T17:52:03.598Z,100717.22
2018-12-16T17:54:33.854Z,100721.44
2018-12-16T17:57:03.983Z,100730.34
2018-12-16T17:59:34.706Z,100732.03
2018-12-16T18:02:05.490Z,100736.30
2018-12-16T18:04:36.094Z,100739.66
2018-12-16T18:07:07.206Z,100735.45
2018-12-16T18:09:37.993Z,100737.55
2018-12-16T18:12:08.524Z,100736.70
2018-12-16T18:14:38.613Z,100740.99
2018-12-16T18:17:09.967Z,100737.56
2018-12-16T18:19:40.324Z,100730.34
2018-12-16T18:22:14.123Z,100735.00
2018-12-16T18:24:44.027Z,100740.94
2018-12-16T18:27:14.217Z,100745.19
2018-12-16T18:29:44.287Z,100744.78
2018-12-16T18:32:14.507Z,100740.10
2018-12-16T18:34:45.261Z,100738.82
2018-12-16T18:37:16.836Z,100742.62
2018-12-16T18:39:47.608Z,100744.34
2018-12-16T18:42:17.776Z,100746.50
2018-12-16T18:44:47.989Z,100745.64
2018-12-16T18:47:18.176Z,100748.63
2018-12-16T18:49:48.219Z,100746.51
2018-12-16T18:52:19.326Z,100747.76
2018-12-16T18:54:50.022Z,100751.16
2018-12-16T18:57:20.837Z,100754.56
2018-12-16T18:59:51.983Z,100757.52
2018-12-16T19:02:22.300Z,100755.80
2018-12-16T19:04:52.444Z,100749.44
2018-12-16T19:07:22.703Z,100754.09
2018-12-16T19:09:53.334Z,100749.80
2018-12-16T19:12:23.526Z,100751.48
2018-12-16T19:14:54.270Z,100755.33
2018-12-16T19:17:24.579Z,100749.41
2018-12-16T19:19:55.000Z,100751.08
2018-12-16T19:22:25.657Z,100754.49
2018-12-16T19:24:55.836Z,100757.88
2018-12-16T19:27:26.823Z,100760.42
2018-12-16T19:29:57.167Z,100757.03
2018-12-16T19:32:27.423Z,100760.47
2018-12-16T19:34:57.782Z,100763.00
2018-12-16T19:37:29.427Z,100763.85
2018-12-16T19:40:00.568Z,100756.60
2018-12-16T19:42:31.697Z,100759.58
2018-12-16T19:45:02.550Z,100764.70
2018-12-16T19:47:35.014Z,100763.42
2018-12-16T19:50:07.658Z,100766.39
2018-12-16T19:52:38.902Z,100772.75
2018-12-16T19:55:10.325Z,100769.75
2018-12-16T19:57:42.736Z,100764.67
2018-12-16T20:00:15.210Z,100770.17
2018-12-16T20:02:46.937Z,100769.32
2018-12-16T20:05:23.631Z,100770.99
2018-12-16T20:07:55.398Z,100779.50
2018-12-16T20:10:27.600Z,100779.92
2018-12-16T20:13:00.028Z,100781.64
2018-12-16T20:15:31.682Z,100781.59
2018-12-16T20:18:03.028Z,100789.28
2018-12-16T20:20:34.019Z,100787.15
2018-12-16T20:23:05.927Z,100776.08
2018-12-16T20:25:37.558Z,100776.52
2018-12-16T20:28:09.215Z,100775.67
2018-12-16T20:30:40.141Z,100772.70
2018-12-16T20:33:11.328Z,100768.90
2018-12-16T20:35:42.493Z,100773.55
2018-12-16T20:38:12.947Z,100778.23
2018-12-16T20:40:44.581Z,100776.50
2018-12-16T20:43:14.721Z,100780.75
2018-12-16T20:45:44.916Z,100785.84
2018-12-16T20:48:15.975Z,100786.70
2018-12-16T20:50:46.895Z,100791.38
2018-12-16T20:53:17.754Z,100790.55
2018-12-16T20:55:47.871Z,100788.42
2018-12-16T20:58:18.006Z,100790.09
2018-12-16T21:00:49.455Z,100799.88
2018-12-16T21:03:19.563Z,100799.00
2018-12-16T21:05:49.784Z,100807.10
2018-12-16T21:08:19.859Z,100811.78
2018-12-16T21:10:50.169Z,100811.36
2018-12-16T21:13:25.396Z,100819.00
2018-12-16T21:16:00.659Z,100826.63
2018-12-16T21:18:31.624Z,100827.06
2018-12-16T21:21:02.895Z,100834.27
2018-12-16T21:23:32.981Z,100837.22
2018-12-16T21:26:03.880Z,100838.10
2018-12-16T21:28:34.074Z,100844.48
2018-12-16T21:31:04.063Z,100845.28
2018-12-16T21:33:33.956Z,100849.58
2018-12-16T21:36:03.917Z,100846.16
2018-12-16T21:38:34.590Z,100846.98
2018-12-16T21:41:04.639Z,100848.72
2018-12-16T21:43:34.936Z,100841.08
2018-12-16T21:46:05.580Z,100843.21
2018-12-16T21:48:35.655Z,100850.45
2018-12-16T21:51:05.868Z,100848.29
2018-12-16T21:53:36.671Z,100857.22
2018-12-16T21:56:06.714Z,100858.92
2018-12-16T21:58:36.752Z,100862.77
2018-12-16T22:01:07.019Z,100863.17
2018-12-16T22:03:38.086Z,100860.23
2018-12-16T22:06:09.037Z,100863.22
2018-12-16T22:08:38.970Z,100856.82
2018-12-16T22:11:09.087Z,100858.96
2018-12-16T22:13:40.290Z,100853.00
2018-12-16T22:16:10.572Z,100852.56
2018-12-16T22:18:41.714Z,100856.84
2018-12-16T22:21:11.902Z,100855.54
2018-12-16T22:23:42.131Z,100847.06
2018-12-16T22:26:12.802Z,100852.58
2018-12-16T22:28:42.826Z,100853.86
2018-12-16T22:31:13.796Z,100862.34
2018-12-16T22:33:43.985Z,100867.45
2018-12-16T22:36:14.047Z,100872.11
2018-12-16T22:38:44.773Z,100870.84
2018-12-16T22:41:15.362Z,100868.70
2018-12-16T22:43:45.454Z,100868.27
2018-12-16T22:46:16.795Z,100871.63
2018-12-16T22:48:47.059Z,100871.64
2018-12-16T22:51:18.310Z,100870.38
2018-12-16T22:53:50.195Z,100874.18
2018-12-16T22:56:20.131Z,100882.28
2018-12-16T22:58:54.355Z,100892.92
2018-12-16T23:01:23.184Z,100891.24
2018-12-16T23:03:53.906Z,100889.11
2018-12-16T23:06:25.222Z,100891.23
2018-12-16T23:08:55.367Z,100892.08
2018-12-16T23:11:26.637Z,100896.30
2018-12-16T23:13:57.514Z,100898.84
2018-12-16T23:16:29.069Z,100901.81
2018-12-16T23:18:59.221Z,100898.42
2018-12-16T23:21:29.402Z,100897.14
2018-12-16T23:23:59.486Z,100896.32
2018-12-16T23:26:30.409Z,100898.88
2018-12-16T23:29:00.526Z,100893.31
2018-12-16T23:31:32.390Z,100902.21
2018-12-16T23:34:03.277Z,100898.39
2018-12-16T23:36:34.318Z,100893.64
2018-12-16T23:39:05.196Z,100896.22
2018-12-16T23:41:35.417Z,100894.53
2018-12-16T23:44:06.159Z,100902.13
2018-12-16T23:46:36.985Z,100893.25
2018-12-16T23:49:07.163Z,100897.48
2018-12-16T23:51:37.478Z,100893.20
2018-12-16T23:54:08.712Z,100885.17
2018-12-16T23:56:39.429Z,100886.41
2018-12-16T23:59:10.899Z,100893.63
